Time,TemperatureF,DewpointF,PressureIn,WindDirection,WindDirectionDegrees,WindSpeedMPH,WindSpeedGustMPH,Humidity,HourlyPrecipIn,Conditions,Clouds,dailyrainin,SoftwareType,DateUTC
2013-02-26 00:00:00,33.3,12.1,30.18,SSW,209,0.0,0.0,41,0.00,,---,0.00,VWS V14.01,2013-02-26 05:00:00,
2013-02-26 00:05:00,33.1,12.0,30.18,SSW,209,0.0,0.0,41,0.00,,---,0.00,VWS V14.01,2013-02-26 05:05:00,
2013-02-26 00:10:00,32.7,11.6,30.18,SSW,209,0.0,0.0,41,0.00,,---,0.00,VWS V14.01,2013-02-26 05:10:00,
2013-02-26 00:15:00,32.5,11.5,30.18,SSW,209,0.0,0.0,41,0.00,,---,0.00,VWS V14.01,2013-02-26 05:15:00,
2013-02-26 00:20:00,32.4,11.9,30.18,SSW,209,0.0,0.0,42,0.00,,---,0.00,VWS V14.01,2013-02-26 05:20:00,
2013-02-26 00:25:00,31.8,11.4,30.18,SSW,209,0.0,0.0,42,0.00,,---,0.00,VWS V14.01,2013-02-26 05:25:00,
2013-02-26 00:30:00,31.5,11.0,30.18,SSW,209,0.0,0.0,42,0.00,,---,0.00,VWS V14.01,2013-02-26 05:30:00,
2013-02-26 00:35:00,31.3,10.9,30.18,SSW,209,0.0,0.0,42,0.00,,---,0.00,VWS V14.01,2013-02-26 05:35:00,
2013-02-26 00:40:00,30.9,11.1,30.18,SSW,209,0.0,0.0,43,0.00,,---,0.00,VWS V14.01,2013-02-26 05:40:00,
2013-02-26 00:46:00,30.7,10.9,30.18,SSW,209,0.0,0.0,43,0.00,,---,0.00,VWS V14.01,2013-02-26 05:46:00,
2013-02-26 00:51:00,30.4,10.6,30.18,SSW,209,0.0,0.0,43,0.00,,---,0.00,VWS V14.01,2013-02-26 05:51:00,
2013-02-26 00:56:00,30.0,10.8,30.18,SSW,209,0.0,0.0,44,0.00,,---,0.00,VWS V14.01,2013-02-26 05:56:00,
2013-02-26 01:01:00,29.8,10.6,30.18,SSW,209,0.0,0.0,44,0.00,,---,0.00,VWS V14.01,2013-02-26 06:01:00,
2013-02-26 01:06:00,29.8,11.1,30.18,SSW,209,0.0,0.0,45,0.00,,---,0.00,VWS V14.01,2013-02-26 06:06:00,
2013-02-26 01:11:00,29.8,11.1,30.18,SW,231,0.0,0.0,45,0.00,,---,0.00,VWS V14.01,2013-02-26 06:11:00,
2013-02-26 01:16:00,29.8,11.6,30.21,SW,231,0.0,0.0,46,0.00,,---,0.00,VWS V14.01,2013-02-26 06:16:00,
2013-02-26 01:21:00,29.5,11.3,30.21,SW,231,0.0,0.0,46,0.00,,---,0.00,VWS V14.01,2013-02-26 06:21:00,
2013-02-26 01:26:00,29.5,11.3,30.21,SW,231,0.0,0.0,46,0.00,,---,0.00,VWS V14.01,2013-02-26 06:26:00,
2013-02-26 01:31:00,29.3,11.6,30.21,SW,231,0.0,0.0,47,0.00,,---,0.00,VWS V14.01,2013-02-26 06:31:00,
2013-02-26 01:36:00,29.3,11.6,30.21,SW,231,0.0,0.0,47,0.00,,---,0.00,VWS V14.01,2013-02-26 06:36:00,
2013-02-26 01:41:00,29.5,12.2,30.21,WSW,256,2.2,2.2,48,0.00,,---,0.00,VWS V14.01,2013-02-26 06:41:00,
2013-02-26 01:46:00,29.7,12.9,30.21,WSW,257,0.0,0.0,49,0.00,,---,0.00,VWS V14.01,2013-02-26 06:46:00,
2013-02-26 01:51:00,30.0,13.6,30.21,WSW,257,0.0,0.0,50,0.00,,---,0.00,VWS V14.01,2013-02-26 06:51:00,
2013-02-26 01:56:00,30.2,13.8,30.21,WSW,257,0.0,0.0,50,0.00,,---,0.00,VWS V14.01,2013-02-26 06:56:00,
2013-02-26 02:01:00,30.6,14.1,30.21,WSW,257,0.0,0.0,50,0.00,,---,0.00,VWS V14.01,2013-02-26 07:01:00,
2013-02-26 02:06:00,30.6,14.1,30.21,WSW,257,0.0,0.0,50,0.00,,---,0.00,VWS V14.01,2013-02-26 07:06:00,
2013-02-26 02:11:00,30.6,14.1,30.21,WSW,257,0.0,0.0,50,0.00,,---,0.00,VWS V14.01,2013-02-26 07:11:00,
2013-02-26 02:16:00,30.4,14.0,30.21,WSW,257,0.0,0.0,50,0.00,,---,0.00,VWS V14.01,2013-02-26 07:16:00,
2013-02-26 02:21:00,30.4,14.0,30.21,WSW,257,0.0,0.0,50,0.00,,---,0.00,VWS V14.01,2013-02-26 07:21:00,
2013-02-26 02:26:00,30.2,14.3,30.21,WSW,257,0.0,0.0,51,0.00,,---,0.00,VWS V14.01,2013-02-26 07:26:00,
2013-02-26 02:31:00,29.8,13.9,30.21,WSW,257,0.0,0.0,51,0.00,,---,0.00,VWS V14.01,2013-02-26 07:31:00,
2013-02-26 02:36:00,29.7,13.8,30.21,WSW,257,0.0,0.0,51,0.00,,---,0.00,VWS V14.01,2013-02-26 07:36:00,
2013-02-26 02:41:00,29.3,13.4,30.21,WSW,257,0.0,0.0,51,0.00,,---,0.00,VWS V14.01,2013-02-26 07:41:00,
2013-02-26 02:46:00,29.1,13.3,30.21,WSW,257,0.0,0.0,51,0.00,,---,0.00,VWS V14.01,2013-02-26 07:46:00,
2013-02-26 02:52:00,28.8,12.9,30.21,WSW,257,0.0,0.0,51,0.00,,---,0.00,VWS V14.01,2013-02-26 07:52:00,
2013-02-26 02:57:00,28.6,12.8,30.21,WSW,257,0.0,0.0,51,0.00,,---,0.00,VWS V14.01,2013-02-26 07:57:00,
2013-02-26 03:02:00,28.4,12.6,30.21,WSW,257,0.0,0.0,51,0.00,,---,0.00,VWS V14.01,2013-02-26 08:02:00,
2013-02-26 03:07:00,28.2,12.9,30.21,WSW,257,0.0,0.0,52,0.00,,---,0.00,VWS V14.01,2013-02-26 08:07:00,
2013-02-26 03:12:00,28.0,12.7,30.21,WSW,257,0.0,0.0,52,0.00,,---,0.00,VWS V14.01,2013-02-26 08:12:00,
2013-02-26 03:17:00,27.9,12.5,30.21,WSW,257,0.0,0.0,52,0.00,,---,0.00,VWS V14.01,2013-02-26 08:17:00,
2013-02-26 03:22:00,27.9,12.5,30.21,WSW,257,0.0,0.0,52,0.00,,---,0.00,VWS V14.01,2013-02-26 08:22:00,
2013-02-26 03:27:00,27.7,12.4,30.21,WSW,257,0.0,0.0,52,0.00,,---,0.00,VWS V14.01,2013-02-26 08:27:00,
2013-02-26 03:32:00,27.5,12.2,30.21,WSW,257,0.0,0.0,52,0.00,,---,0.00,VWS V14.01,2013-02-26 08:32:00,
2013-02-26 03:37:00,27.3,12.0,30.21,WSW,257,0.0,0.0,52,0.00,,---,0.00,VWS V14.01,2013-02-26 08:37:00,
2013-02-26 03:42:00,27.3,12.5,30.21,WSW,257,0.0,0.0,53,0.00,,---,0.00,VWS V14.01,2013-02-26 08:42:00,
2013-02-26 03:48:00,27.3,12.5,30.21,WSW,257,0.0,0.0,53,0.00,,---,0.00,VWS V14.01,2013-02-26 08:48:00,
2013-02-26 03:53:00,27.1,12.3,30.21,WSW,257,0.0,0.0,53,0.00,,---,0.00,VWS V14.01,2013-02-26 08:53:00,
2013-02-26 03:58:00,27.0,12.1,30.21,WSW,257,0.0,0.0,53,0.00,,---,0.00,VWS V14.01,2013-02-26 08:58:00,
2013-02-26 04:03:00,27.0,12.1,30.21,WSW,257,0.0,0.0,53,0.00,,---,0.00,VWS V14.01,2013-02-26 09:03:00,
2013-02-26 04:08:00,27.0,12.6,30.21,WSW,257,0.0,0.0,54,0.00,,---,0.00,VWS V14.01,2013-02-26 09:08:00,
2013-02-26 04:13:00,27.0,12.6,30.21,WSW,257,0.0,0.0,54,0.00,,---,0.00,VWS V14.01,2013-02-26 09:13:00,
2013-02-26 04:18:00,26.8,12.4,30.21,WSW,257,0.0,0.0,54,0.00,,---,0.00,VWS V14.01,2013-02-26 09:18:00,
2013-02-26 04:23:00,26.8,12.4,30.21,WSW,257,0.0,0.0,54,0.00,,---,0.00,VWS V14.01,2013-02-26 09:23:00,
2013-02-26 04:28:00,26.8,12.4,30.21,WSW,257,0.0,0.0,54,0.00,,---,0.00,VWS V14.01,2013-02-26 09:28:00,
2013-02-26 04:33:00,26.8,12.4,30.21,WSW,257,0.0,0.0,54,0.00,,---,0.00,VWS V14.01,2013-02-26 09:33:00,
2013-02-26 04:38:00,26.6,12.6,30.21,WSW,257,0.0,0.0,55,0.00,,---,0.00,VWS V14.01,2013-02-26 09:38:00,
2013-02-26 04:43:00,26.8,12.8,30.21,WSW,257,0.0,0.0,55,0.00,,---,0.00,VWS V14.01,2013-02-26 09:43:00,
2013-02-26 04:48:00,26.6,12.6,30.21,WSW,257,0.0,0.0,55,0.00,,---,0.00,VWS V14.01,2013-02-26 09:48:00,
2013-02-26 04:53:00,26.6,12.6,30.21,WSW,257,0.0,0.0,55,0.00,,---,0.00,VWS V14.01,2013-02-26 09:53:00,
2013-02-26 04:58:00,26.6,13.0,30.21,WSW,257,0.0,0.0,56,0.00,,---,0.00,VWS V14.01,2013-02-26 09:58:00,
2013-02-26 05:03:00,26.6,13.0,30.21,WSW,257,0.0,0.0,56,0.00,,---,0.00,VWS V14.01,2013-02-26 10:03:00,
2013-02-26 05:08:00,26.4,12.9,30.21,WSW,257,0.0,0.0,56,0.00,,---,0.00,VWS V14.01,2013-02-26 10:08:00,
2013-02-26 05:13:00,26.4,12.9,30.21,WSW,257,0.0,0.0,56,0.00,,---,0.00,VWS V14.01,2013-02-26 10:13:00,
2013-02-26 05:18:00,26.4,12.9,30.21,WSW,257,0.0,0.0,56,0.00,,---,0.00,VWS V14.01,2013-02-26 10:18:00,
2013-02-26 05:23:00,26.4,13.3,30.21,WSW,257,0.0,0.0,57,0.00,,---,0.00,VWS V14.01,2013-02-26 10:23:00,
2013-02-26 05:28:00,26.4,13.3,30.18,WSW,257,0.0,0.0,57,0.00,,---,0.00,VWS V14.01,2013-02-26 10:28:00,
2013-02-26 05:33:00,26.4,13.3,30.18,WSW,257,0.0,0.0,57,0.00,,---,0.00,VWS V14.01,2013-02-26 10:33:00,
2013-02-26 05:38:00,26.4,13.3,30.18,WSW,257,0.0,0.0,57,0.00,,---,0.00,VWS V14.01,2013-02-26 10:38:00,
2013-02-26 05:43:00,26.4,13.3,30.18,WSW,257,0.0,0.0,57,0.00,,---,0.00,VWS V14.01,2013-02-26 10:43:00,
2013-02-26 05:49:00,26.4,13.7,30.21,WSW,257,0.0,0.0,58,0.00,,---,0.00,VWS V14.01,2013-02-26 10:49:00,
2013-02-26 05:54:00,26.2,13.5,30.21,WSW,257,0.0,0.0,58,0.00,,---,0.00,VWS V14.01,2013-02-26 10:54:00,
2013-02-26 05:59:00,26.4,13.7,30.21,WSW,257,0.0,0.0,58,0.00,,---,0.00,VWS V14.01,2013-02-26 10:59:00,
2013-02-26 06:04:00,26.4,13.7,30.21,WSW,257,0.0,0.0,58,0.00,,---,0.00,VWS V14.01,2013-02-26 11:04:00,
2013-02-26 06:09:00,26.4,13.7,30.21,WSW,257,0.0,0.0,58,0.00,,---,0.00,VWS V14.01,2013-02-26 11:09:00,
2013-02-26 06:14:00,26.4,13.7,30.21,WSW,257,0.0,0.0,58,0.00,,---,0.00,VWS V14.01,2013-02-26 11:14:00,
2013-02-26 06:19:00,26.4,14.1,30.21,WSW,257,0.0,0.0,59,0.00,,---,0.00,VWS V14.01,2013-02-26 11:19:00,
2013-02-26 06:24:00,26.4,14.1,30.21,WSW,257,0.0,0.0,59,0.00,,---,0.00,VWS V14.01,2013-02-26 11:24:00,
2013-02-26 06:29:00,26.6,14.2,30.18,WSW,257,0.0,0.0,59,0.00,,---,0.00,VWS V14.01,2013-02-26 11:29:00,
2013-02-26 06:34:00,26.6,14.2,30.18,WSW,257,0.0,0.0,59,0.00,,---,0.00,VWS V14.01,2013-02-26 11:34:00,
2013-02-26 06:39:00,26.6,14.2,30.18,WSW,257,0.0,0.0,59,0.00,,---,0.00,VWS V14.01,2013-02-26 11:39:00,
2013-02-26 06:44:00,26.6,14.6,30.18,WSW,257,0.0,0.0,60,0.00,,---,0.00,VWS V14.01,2013-02-26 11:44:00,
2013-02-26 06:49:00,26.8,14.8,30.18,WSW,257,0.0,0.0,60,0.00,,---,0.00,VWS V14.01,2013-02-26 11:49:00,
2013-02-26 06:54:00,27.0,14.9,30.18,WSW,257,0.0,0.0,60,0.00,,---,0.00,VWS V14.01,2013-02-26 11:54:00,
2013-02-26 06:59:00,27.1,15.1,30.18,WSW,257,0.0,0.0,60,0.00,,---,0.00,VWS V14.01,2013-02-26 11:59:00,
2013-02-26 07:04:00,27.3,15.3,30.21,WSW,257,0.0,0.0,60,0.00,,---,0.00,VWS V14.01,2013-02-26 12:04:00,
2013-02-26 07:09:00,27.7,16.0,30.21,WSW,257,0.0,0.0,61,0.00,,---,0.00,VWS V14.01,2013-02-26 12:09:00,
2013-02-26 07:15:00,28.0,16.3,30.21,WSW,257,0.0,0.0,61,0.00,,---,0.00,VWS V14.01,2013-02-26 12:15:00,
2013-02-26 07:20:00,28.4,16.7,30.24,WSW,257,0.0,0.0,61,0.00,,---,0.00,VWS V14.01,2013-02-26 12:20:00,
2013-02-26 07:25:00,28.8,17.0,30.24,WSW,257,0.0,0.0,61,0.00,,---,0.00,VWS V14.01,2013-02-26 12:25:00,
2013-02-26 07:30:00,29.1,17.7,30.24,WSW,257,0.0,0.0,62,0.00,,---,0.00,VWS V14.01,2013-02-26 12:30:00,
2013-02-26 07:35:00,29.5,18.1,30.24,WSW,257,0.0,0.0,62,0.00,,---,0.00,VWS V14.01,2013-02-26 12:35:00,
2013-02-26 07:40:00,30.2,18.8,30.24,WSW,257,0.0,0.0,62,0.00,,---,0.00,VWS V14.01,2013-02-26 12:40:00,
2013-02-26 07:45:00,30.7,19.3,30.24,WSW,257,0.0,0.0,62,0.00,,---,0.00,VWS V14.01,2013-02-26 12:45:00,
2013-02-26 07:50:00,31.5,20.3,30.24,WSW,257,0.0,0.0,63,0.00,,---,0.00,VWS V14.01,2013-02-26 12:50:00,
2013-02-26 07:55:00,32.4,21.2,30.24,WSW,257,0.0,0.0,63,0.00,,---,0.00,VWS V14.01,2013-02-26 12:55:00,
2013-02-26 08:00:00,33.1,22.2,30.24,WSW,257,0.0,0.0,64,0.00,,---,0.00,VWS V14.01,2013-02-26 13:00:00,
2013-02-26 08:05:00,34.2,22.9,30.24,WSW,257,0.0,0.0,63,0.00,,---,0.00,VWS V14.01,2013-02-26 13:05:00,
2013-02-26 08:10:00,35.2,23.9,30.24,WSW,257,0.0,0.0,63,0.00,,---,0.00,VWS V14.01,2013-02-26 13:10:00,
2013-02-26 08:15:00,36.0,24.6,30.24,WSW,257,0.0,0.0,63,0.00,,---,0.00,VWS V14.01,2013-02-26 13:15:00,
2013-02-26 08:20:00,36.7,25.3,30.24,WSW,257,0.0,0.0,63,0.00,,---,0.00,VWS V14.01,2013-02-26 13:20:00,
2013-02-26 08:25:00,37.2,25.4,30.24,WSW,257,0.0,0.0,62,0.00,,---,0.00,VWS V14.01,2013-02-26 13:25:00,
2013-02-26 08:30:00,37.8,25.9,30.24,NNE,21,2.2,2.2,62,0.00,,---,0.00,VWS V14.01,2013-02-26 13:30:00,
2013-02-26 08:35:00,38.3,26.0,30.24,NE,42,3.1,3.1,61,0.00,,---,0.00,VWS V14.01,2013-02-26 13:35:00,
2013-02-26 08:40:00,38.7,26.4,30.24,NE,38,2.7,2.7,61,0.00,,---,0.00,VWS V14.01,2013-02-26 13:40:00,
2013-02-26 08:45:00,39.2,26.1,30.24,ENE,70,2.7,2.7,59,0.00,,---,0.00,VWS V14.01,2013-02-26 13:45:00,
2013-02-26 08:50:00,39.7,26.2,30.24,NE,35,0.0,0.0,58,0.00,,---,0.00,VWS V14.01,2013-02-26 13:50:00,
2013-02-26 08:55:00,40.5,26.4,30.24,NNE,23,0.0,0.0,57,0.00,,---,0.00,VWS V14.01,2013-02-26 13:55:00,
2013-02-26 09:00:00,41.2,26.2,30.24,ENE,77,0.0,0.0,55,0.00,,---,0.00,VWS V14.01,2013-02-26 14:00:00,
2013-02-26 09:05:00,42.1,26.6,30.24,East,89,2.2,2.2,54,0.00,,---,0.00,VWS V14.01,2013-02-26 14:05:00,
2013-02-26 09:10:00,42.6,25.8,30.24,ENE,60,5.8,5.8,51,0.00,,---,0.00,VWS V14.01,2013-02-26 14:10:00,
2013-02-26 09:15:00,42.8,25.5,30.24,East,79,5.4,5.4,50,0.00,,---,0.00,VWS V14.01,2013-02-26 14:15:00,
2013-02-26 09:20:00,43.0,24.1,30.24,East,81,4.0,4.0,47,0.00,,---,0.00,VWS V14.01,2013-02-26 14:20:00,
2013-02-26 09:25:00,43.5,23.6,30.24,ENE,61,5.8,5.8,45,0.00,,---,0.00,VWS V14.01,2013-02-26 14:25:00,
2013-02-26 09:30:00,43.9,23.4,30.24,ENE,74,4.0,4.0,44,0.00,,---,0.00,VWS V14.01,2013-02-26 14:30:00,
2013-02-26 09:35:00,44.4,22.2,30.24,ESE,112,6.3,6.3,41,0.00,,---,0.00,VWS V14.01,2013-02-26 14:35:00,
2013-02-26 09:40:00,44.8,22.0,30.24,North,357,5.4,5.4,40,0.00,,---,0.00,VWS V14.01,2013-02-26 14:40:00,
2013-02-26 09:45:00,45.0,21.5,30.24,East,91,2.7,2.7,39,0.00,,---,0.00,VWS V14.01,2013-02-26 14:45:00,
2013-02-26 09:50:00,45.1,21.7,30.21,ESE,102,4.0,4.0,39,0.00,,---,0.00,VWS V14.01,2013-02-26 14:50:00,
2013-02-26 09:55:00,45.3,21.2,30.21,ENE,78,4.0,4.0,38,0.00,,---,0.00,VWS V14.01,2013-02-26 14:55:00,
2013-02-26 10:00:00,45.5,21.4,30.21,NE,49,5.8,5.8,38,0.00,,---,0.00,VWS V14.01,2013-02-26 15:00:00,
2013-02-26 10:05:00,45.7,21.5,30.24,ENE,60,3.6,3.6,38,0.00,,---,0.00,VWS V14.01,2013-02-26 15:05:00,
2013-02-26 10:10:00,46.0,21.2,30.24,East,83,5.8,5.8,37,0.00,,---,0.00,VWS V14.01,2013-02-26 15:10:00,
2013-02-26 10:15:00,46.2,21.4,30.24,NE,45,5.8,5.8,37,0.00,,---,0.00,VWS V14.01,2013-02-26 15:15:00,
2013-02-26 10:20:00,46.6,21.7,30.24,East,92,3.1,3.1,37,0.00,,---,0.00,VWS V14.01,2013-02-26 15:20:00,
2013-02-26 10:25:00,47.1,21.6,30.24,NE,41,3.6,3.6,36,0.00,,---,0.00,VWS V14.01,2013-02-26 15:25:00,
2013-02-26 10:30:00,47.1,19.5,30.24,East,91,6.3,6.3,33,0.00,,---,0.00,VWS V14.01,2013-02-26 15:30:00,
2013-02-26 10:35:00,47.3,19.0,30.24,ENE,70,10.5,10.5,32,0.00,,---,0.00,VWS V14.01,2013-02-26 15:35:00,
2013-02-26 10:40:00,47.3,19.0,30.24,East,92,6.3,6.3,32,0.00,,---,0.00,VWS V14.01,2013-02-26 15:40:00,
2013-02-26 10:45:00,47.5,19.1,30.24,ENE,66,6.3,6.3,32,0.00,,---,0.00,VWS V14.01,2013-02-26 15:45:00,
2013-02-26 10:50:00,47.7,19.3,30.24,ENE,61,6.3,6.3,32,0.00,,---,0.00,VWS V14.01,2013-02-26 15:50:00,
2013-02-26 10:55:00,47.7,18.5,30.24,NE,51,6.3,6.3,31,0.00,,---,0.00,VWS V14.01,2013-02-26 15:55:00,
2013-02-26 11:00:00,47.8,18.7,30.24,SSE,153,4.0,4.0,31,0.00,,---,0.00,VWS V14.01,2013-02-26 16:00:00,
2013-02-26 11:05:00,48.0,18.1,30.24,East,79,8.1,8.1,30,0.00,,---,0.00,VWS V14.01,2013-02-26 16:05:00,
2013-02-26 11:10:00,47.8,17.9,30.24,North,2,8.1,8.1,30,0.00,,---,0.00,VWS V14.01,2013-02-26 16:10:00,
2013-02-26 11:15:00,48.2,18.2,30.24,ENE,63,8.3,8.3,30,0.00,,---,0.00,VWS V14.01,2013-02-26 16:15:00,
2013-02-26 11:20:00,48.2,17.5,30.24,ENE,62,10.5,10.5,29,0.00,,---,0.00,VWS V14.01,2013-02-26 16:20:00,
2013-02-26 11:25:00,48.2,16.6,30.24,NE,36,5.4,5.4,28,0.00,,---,0.00,VWS V14.01,2013-02-26 16:25:00,
2013-02-26 11:31:00,48.0,16.5,30.24,ENE,66,5.4,5.4,28,0.00,,---,0.00,VWS V14.01,2013-02-26 16:31:00,
2013-02-26 11:36:00,48.2,16.6,30.21,ENE,73,6.3,6.3,28,0.00,,---,0.00,VWS V14.01,2013-02-26 16:36:00,
2013-02-26 11:41:00,48.4,16.8,30.21,East,81,10.5,10.5,28,0.00,,---,0.00,VWS V14.01,2013-02-26 16:41:00,
2013-02-26 11:46:00,48.4,16.8,30.21,NE,55,10.5,10.5,28,0.00,,---,0.00,VWS V14.01,2013-02-26 16:46:00,
2013-02-26 11:51:00,48.2,16.6,30.21,East,86,5.4,5.4,28,0.00,,---,0.00,VWS V14.01,2013-02-26 16:51:00,
2013-02-26 11:56:00,48.2,16.6,30.21,WNW,301,5.4,5.4,28,0.00,,---,0.00,VWS V14.01,2013-02-26 16:56:00,
2013-02-26 12:01:00,48.7,18.7,30.21,NE,43,7.6,7.6,30,0.00,,---,0.00,VWS V14.01,2013-02-26 17:01:00,
2013-02-26 12:06:00,48.7,17.9,30.21,NE,44,5.8,5.8,29,0.00,,---,0.00,VWS V14.01,2013-02-26 17:06:00,
2013-02-26 12:11:00,48.6,17.8,30.21,East,91,12.8,12.8,29,0.00,,---,0.00,VWS V14.01,2013-02-26 17:11:00,
2013-02-26 12:16:00,48.6,17.8,30.21,NE,50,5.4,5.4,29,0.00,,---,0.00,VWS V14.01,2013-02-26 17:16:00,
2013-02-26 12:21:00,48.7,17.9,30.21,ESE,112,5.8,5.8,29,0.00,,---,0.00,VWS V14.01,2013-02-26 17:21:00,
2013-02-26 12:26:00,49.1,17.4,30.21,ENE,74,5.4,5.4,28,0.00,,---,0.00,VWS V14.01,2013-02-26 17:26:00,
2013-02-26 12:31:00,48.9,16.4,30.21,East,82,10.5,10.5,27,0.00,,---,0.00,VWS V14.01,2013-02-26 17:31:00,
2013-02-26 12:36:00,48.7,17.1,30.21,ENE,74,6.3,6.3,28,0.00,,---,0.00,VWS V14.01,2013-02-26 17:36:00,
2013-02-26 12:41:00,48.6,17.0,30.21,East,87,4.0,4.0,28,0.00,,---,0.00,VWS V14.01,2013-02-26 17:41:00,
2013-02-26 12:46:00,48.4,16.8,30.21,ESE,115,7.6,7.6,28,0.00,,---,0.00,VWS V14.01,2013-02-26 17:46:00,
2013-02-26 12:51:00,48.6,17.0,30.21,East,97,7.6,7.6,28,0.00,,---,0.00,VWS V14.01,2013-02-26 17:51:00,
2013-02-26 12:56:00,48.2,16.6,30.21,East,91,8.3,8.3,28,0.00,,---,0.00,VWS V14.01,2013-02-26 17:56:00,
2013-02-26 13:01:00,48.2,16.6,30.21,ENE,74,12.3,12.3,28,0.00,,---,0.00,VWS V14.01,2013-02-26 18:01:00,
2013-02-26 13:06:00,47.8,16.3,30.21,ENE,57,11.0,11.0,28,0.00,,---,0.00,VWS V14.01,2013-02-26 18:06:00,
2013-02-26 13:11:00,47.7,16.2,30.21,NE,47,6.3,6.3,28,0.00,,---,0.00,VWS V14.01,2013-02-26 18:11:00,
2013-02-26 13:16:00,47.1,15.7,30.21,East,101,8.1,8.1,28,0.00,,---,0.00,VWS V14.01,2013-02-26 18:16:00,
2013-02-26 13:21:00,46.8,16.2,30.18,ENE,77,11.0,11.0,29,0.00,,---,0.00,VWS V14.01,2013-02-26 18:21:00,
2013-02-26 13:26:00,46.2,15.7,30.18,ENE,67,6.3,6.3,29,0.00,,---,0.00,VWS V14.01,2013-02-26 18:26:00,
2013-02-26 13:31:00,46.2,16.5,30.18,East,88,8.3,8.3,30,0.00,,---,0.00,VWS V14.01,2013-02-26 18:31:00,
2013-02-26 13:36:00,46.2,16.5,30.18,East,87,4.5,4.5,30,0.00,,---,0.00,VWS V14.01,2013-02-26 18:36:00,
2013-02-26 13:41:00,45.9,16.2,30.18,ENE,61,10.1,10.1,30,0.00,,---,0.00,VWS V14.01,2013-02-26 18:41:00,
2013-02-26 13:46:00,45.9,17.0,30.18,ENE,78,10.5,10.5,31,0.00,,---,0.00,VWS V14.01,2013-02-26 18:46:00,
2013-02-26 13:51:00,45.7,17.5,30.18,East,89,5.8,5.8,32,0.00,,---,0.00,VWS V14.01,2013-02-26 18:51:00,
2013-02-26 13:56:00,45.5,16.6,30.18,ENE,64,8.1,8.1,31,0.00,,---,0.00,VWS V14.01,2013-02-26 18:56:00,
2013-02-26 14:01:00,45.1,17.1,30.18,SE,129,6.3,6.3,32,0.00,,---,0.00,VWS V14.01,2013-02-26 19:01:00,
2013-02-26 14:06:00,45.0,16.9,30.18,East,79,6.3,6.3,32,0.00,,---,0.00,VWS V14.01,2013-02-26 19:06:00,
2013-02-26 14:11:00,44.8,17.5,30.18,ENE,63,11.9,11.9,33,0.00,,---,0.00,VWS V14.01,2013-02-26 19:11:00,
2013-02-26 14:16:00,44.6,17.3,30.18,East,91,10.5,10.5,33,0.00,,---,0.00,VWS V14.01,2013-02-26 19:16:00,
2013-02-26 14:21:00,44.4,17.8,30.18,East,85,11.0,11.0,34,0.00,,---,0.00,VWS V14.01,2013-02-26 19:21:00,
2013-02-26 14:26:00,44.2,18.3,30.18,East,89,3.6,3.6,35,0.00,,---,0.00,VWS V14.01,2013-02-26 19:26:00,
2013-02-26 14:31:00,44.2,18.3,30.18,East,101,3.6,3.6,35,0.00,,---,0.00,VWS V14.01,2013-02-26 19:31:00,
2013-02-26 14:36:00,44.2,19.0,30.18,ENE,62,4.9,4.9,36,0.00,,---,0.00,VWS V14.01,2013-02-26 19:36:00,
2013-02-26 14:41:00,44.2,18.3,30.18,East,91,10.1,10.1,35,0.00,,---,0.00,VWS V14.01,2013-02-26 19:41:00,
2013-02-26 14:46:00,44.1,17.5,30.18,ENE,67,4.0,4.0,34,0.00,,---,0.00,VWS V14.01,2013-02-26 19:46:00,
2013-02-26 14:51:00,44.1,18.8,30.15,ENE,78,10.1,10.1,36,0.00,,---,0.00,VWS V14.01,2013-02-26 19:51:00,
2013-02-26 14:56:00,43.7,19.1,30.15,ENE,66,8.1,8.1,37,0.00,,---,0.00,VWS V14.01,2013-02-26 19:56:00,
2013-02-26 15:01:00,43.7,19.8,30.15,ENE,77,3.1,3.1,38,0.00,,---,0.00,VWS V14.01,2013-02-26 20:01:00,
2013-02-26 15:06:00,43.3,19.5,30.15,NE,49,5.8,5.8,38,0.00,,---,0.00,VWS V14.01,2013-02-26 20:06:00,
2013-02-26 15:11:00,43.3,20.1,30.15,ENE,75,6.3,6.3,39,0.00,,---,0.00,VWS V14.01,2013-02-26 20:11:00,
2013-02-26 15:16:00,43.2,19.9,30.12,NNE,27,4.0,4.0,39,0.00,,---,0.00,VWS V14.01,2013-02-26 20:16:00,
2013-02-26 15:21:00,43.0,19.7,30.12,NE,53,5.8,5.8,39,0.00,,---,0.00,VWS V14.01,2013-02-26 20:21:00,
2013-02-26 15:26:00,43.0,20.3,30.12,ESE,105,8.3,8.3,40,0.00,,---,0.00,VWS V14.01,2013-02-26 20:26:00,
2013-02-26 15:31:00,42.8,20.2,30.12,East,96,4.0,4.0,40,0.00,,---,0.00,VWS V14.01,2013-02-26 20:31:00,
2013-02-26 15:36:00,42.8,20.2,30.12,East,91,15.4,15.4,40,0.00,,---,0.00,VWS V14.01,2013-02-26 20:36:00,
2013-02-26 15:41:00,42.6,20.6,30.12,East,93,8.7,8.7,41,0.00,,---,0.00,VWS V14.01,2013-02-26 20:41:00,
2013-02-26 15:46:00,42.4,20.4,30.12,ENE,75,12.3,12.3,41,0.00,,---,0.00,VWS V14.01,2013-02-26 20:46:00,
2013-02-26 15:51:00,42.3,20.3,30.12,ENE,60,5.8,5.8,41,0.00,,---,0.00,VWS V14.01,2013-02-26 20:51:00,
2013-02-26 15:56:00,42.3,20.8,30.12,East,95,5.8,5.8,42,0.00,,---,0.00,VWS V14.01,2013-02-26 20:56:00,
2013-02-26 16:01:00,42.3,21.4,30.12,East,95,5.8,5.8,43,0.00,,---,0.00,VWS V14.01,2013-02-26 21:01:00,
2013-02-26 16:07:00,42.1,20.7,30.12,NE,51,10.5,10.5,42,0.00,,---,0.00,VWS V14.01,2013-02-26 21:07:00,
2013-02-26 16:12:00,41.9,19.9,30.12,NE,54,12.8,12.8,41,0.00,,---,0.00,VWS V14.01,2013-02-26 21:12:00,
2013-02-26 16:17:00,41.7,19.8,30.09,ENE,68,6.3,6.3,41,0.00,,---,0.00,VWS V14.01,2013-02-26 21:17:00,
2013-02-26 16:22:00,41.7,20.9,30.09,East,79,5.8,5.8,43,0.00,,---,0.00,VWS V14.01,2013-02-26 21:22:00,
2013-02-26 16:27:00,41.7,20.3,30.09,NE,44,5.4,5.4,42,0.00,,---,0.00,VWS V14.01,2013-02-26 21:27:00,
2013-02-26 16:32:00,41.5,20.7,30.09,NE,55,5.8,5.8,43,0.00,,---,0.00,VWS V14.01,2013-02-26 21:32:00,
2013-02-26 16:37:00,41.5,20.7,30.09,ENE,74,7.6,7.6,43,0.00,,---,0.00,VWS V14.01,2013-02-26 21:37:00,
2013-02-26 16:42:00,41.5,20.7,30.09,East,86,12.3,12.3,43,0.00,,---,0.00,VWS V14.01,2013-02-26 21:42:00,
2013-02-26 16:47:00,41.4,20.6,30.09,East,82,11.0,11.0,43,0.00,,---,0.00,VWS V14.01,2013-02-26 21:47:00,
2013-02-26 16:52:00,41.4,21.1,30.09,ENE,61,8.1,8.1,44,0.00,,---,0.00,VWS V14.01,2013-02-26 21:52:00,
2013-02-26 16:57:00,41.4,21.1,30.09,ENE,78,12.8,12.8,44,0.00,,---,0.00,VWS V14.01,2013-02-26 21:57:00,
2013-02-26 17:02:00,41.4,21.1,30.09,NE,51,5.8,5.8,44,0.00,,---,0.00,VWS V14.01,2013-02-26 22:02:00,
2013-02-26 17:07:00,41.2,20.9,30.09,ENE,78,12.3,12.3,44,0.00,,---,0.00,VWS V14.01,2013-02-26 22:07:00,
2013-02-26 17:12:00,41.2,20.9,30.09,East,82,8.3,8.3,44,0.00,,---,0.00,VWS V14.01,2013-02-26 22:12:00,
2013-02-26 17:17:00,41.2,21.5,30.09,NE,56,8.3,8.3,45,0.00,,---,0.00,VWS V14.01,2013-02-26 22:17:00,
2013-02-26 17:22:00,41.2,21.5,30.09,East,81,8.3,8.3,45,0.00,,---,0.00,VWS V14.01,2013-02-26 22:22:00,
2013-02-26 17:27:00,41.2,20.9,30.09,ENE,73,8.1,8.1,44,0.00,,---,0.00,VWS V14.01,2013-02-26 22:27:00,
2013-02-26 17:32:00,41.0,21.3,30.06,NE,55,10.1,10.1,45,0.00,,---,0.00,VWS V14.01,2013-02-26 22:32:00,
2013-02-26 17:37:00,41.0,21.3,30.06,ENE,67,9.2,9.2,45,0.00,,---,0.00,VWS V14.01,2013-02-26 22:37:00,
2013-02-26 17:42:00,41.0,21.3,30.06,NE,49,6.7,6.7,45,0.00,,---,0.00,VWS V14.01,2013-02-26 22:42:00,
2013-02-26 17:47:00,41.0,21.3,30.06,ENE,69,8.1,8.1,45,0.00,,---,0.00,VWS V14.01,2013-02-26 22:47:00,
2013-02-26 17:52:00,41.0,21.3,30.06,East,101,8.7,8.7,45,0.00,,---,0.00,VWS V14.01,2013-02-26 22:52:00,
2013-02-26 17:57:00,41.0,21.3,30.06,NE,49,5.8,5.8,45,0.00,,---,0.00,VWS V14.01,2013-02-26 22:57:00,
2013-02-26 18:02:00,41.0,21.3,30.06,NE,56,4.0,4.0,45,0.00,,---,0.00,VWS V14.01,2013-02-26 23:02:00,
2013-02-26 18:07:00,41.0,21.3,30.06,ENE,71,11.9,11.9,45,0.00,,---,0.00,VWS V14.01,2013-02-26 23:07:00,
2013-02-26 18:12:00,41.0,21.8,30.06,ENE,78,8.7,8.7,46,0.00,,---,0.00,VWS V14.01,2013-02-26 23:12:00,
2013-02-26 18:17:00,41.0,20.8,30.06,NE,55,8.7,8.7,44,0.00,,---,0.00,VWS V14.01,2013-02-26 23:17:00,
2013-02-26 18:22:00,41.0,20.8,30.06,ENE,67,7.2,7.2,44,0.00,,---,0.00,VWS V14.01,2013-02-26 23:22:00,
2013-02-26 18:27:00,41.0,21.8,30.06,ENE,63,8.7,8.7,46,0.00,,---,0.00,VWS V14.01,2013-02-26 23:27:00,
2013-02-26 18:32:00,41.0,22.3,30.06,NE,53,12.8,12.8,47,0.00,,---,0.00,VWS V14.01,2013-02-26 23:32:00,
2013-02-26 18:37:00,40.8,22.7,30.06,ENE,63,7.6,7.6,48,0.00,,---,0.00,VWS V14.01,2013-02-26 23:37:00,
2013-02-26 18:42:00,40.6,23.0,30.03,NE,38,10.1,10.1,49,0.00,,---,0.00,VWS V14.01,2013-02-26 23:42:00,
2013-02-26 18:48:00,40.6,23.0,30.03,East,96,11.0,11.0,49,0.00,,---,0.00,VWS V14.01,2013-02-26 23:48:00,
2013-02-26 18:53:00,40.5,22.8,30.03,NE,50,15.4,15.4,49,0.00,,---,0.00,VWS V14.01,2013-02-26 23:53:00,
2013-02-26 18:58:00,40.3,21.2,30.03,East,84,11.9,11.9,46,0.00,,---,0.00,VWS V14.01,2013-02-26 23:58:00,
2013-02-26 19:03:00,40.5,21.8,30.03,East,84,13.6,13.6,47,0.00,,---,0.00,VWS V14.01,2013-02-27 00:03:00,
2013-02-26 19:08:00,40.3,21.7,30.03,East,95,8.7,8.7,47,0.00,,---,0.00,VWS V14.01,2013-02-27 00:08:00,
2013-02-26 19:13:00,40.3,21.2,30.03,NE,46,8.3,8.3,46,0.00,,---,0.00,VWS V14.01,2013-02-27 00:13:00,
2013-02-26 19:18:00,40.3,21.7,30.03,NE,36,6.3,6.3,47,0.00,,---,0.00,VWS V14.01,2013-02-27 00:18:00,
2013-02-26 19:23:00,40.3,22.2,30.03,ESE,106,8.1,8.1,48,0.00,,---,0.00,VWS V14.01,2013-02-27 00:23:00,
2013-02-26 19:28:00,40.3,21.7,30.03,ENE,70,8.7,8.7,47,0.00,,---,0.00,VWS V14.01,2013-02-27 00:28:00,
2013-02-26 19:33:00,40.3,21.2,30.03,NE,51,10.5,10.5,46,0.00,,---,0.00,VWS V14.01,2013-02-27 00:33:00,
2013-02-26 19:38:00,40.3,21.2,30.00,East,89,13.2,13.2,46,0.00,,---,0.00,VWS V14.01,2013-02-27 00:38:00,
2013-02-26 19:43:00,40.3,21.2,30.00,NE,52,7.6,7.6,46,0.00,,---,0.00,VWS V14.01,2013-02-27 00:43:00,
2013-02-26 19:48:00,40.3,21.7,30.00,ENE,57,8.3,8.3,47,0.00,,---,0.00,VWS V14.01,2013-02-27 00:48:00,
2013-02-26 19:53:00,40.5,21.8,30.00,NE,43,10.1,10.1,47,0.00,,---,0.00,VWS V14.01,2013-02-27 00:53:00,
2013-02-26 19:58:00,40.5,22.3,30.00,East,99,15.4,15.4,48,0.00,,---,0.00,VWS V14.01,2013-02-27 00:58:00,
2013-02-26 20:03:00,40.5,22.3,30.00,East,89,17.4,17.4,48,0.00,,---,0.00,VWS V14.01,2013-02-27 01:03:00,
2013-02-26 20:08:00,40.6,23.0,30.00,ENE,63,8.1,8.1,49,0.00,,---,0.00,VWS V14.01,2013-02-27 01:08:00,
2013-02-26 20:13:00,40.6,23.0,30.00,NNE,29,15.4,15.4,49,0.00,,---,0.00,VWS V14.01,2013-02-27 01:13:00,
2013-02-26 20:18:00,40.6,23.5,29.97,East,96,8.7,8.7,50,0.00,,---,0.00,VWS V14.01,2013-02-27 01:18:00,
2013-02-26 20:23:00,40.5,24.2,29.97,NE,53,9.6,9.6,52,0.00,,---,0.00,VWS V14.01,2013-02-27 01:23:00,
2013-02-26 20:28:00,40.5,25.1,29.94,East,89,8.3,8.3,54,0.00,,---,0.00,VWS V14.01,2013-02-27 01:28:00,
2013-02-26 20:33:00,40.3,26.3,29.94,ENE,67,13.2,13.2,57,0.00,,---,0.00,VWS V14.01,2013-02-27 01:33:00,
2013-02-26 20:38:00,40.3,27.1,29.94,NE,48,5.4,5.4,59,0.00,,---,0.00,VWS V14.01,2013-02-27 01:38:00,
2013-02-26 20:43:00,40.3,27.5,29.94,NE,36,12.8,12.8,60,0.00,,---,0.00,VWS V14.01,2013-02-27 01:43:00,
2013-02-26 20:48:00,40.3,28.3,29.94,NNE,31,5.8,5.8,62,0.00,,---,0.00,VWS V14.01,2013-02-27 01:48:00,
2013-02-26 20:53:00,40.3,29.1,29.94,ENE,58,9.6,9.6,64,0.00,,---,0.00,VWS V14.01,2013-02-27 01:53:00,
2013-02-26 20:58:00,40.3,29.8,29.94,East,82,10.5,10.5,66,0.00,,---,0.00,VWS V14.01,2013-02-27 01:58:00,
2013-02-26 21:03:00,40.3,30.2,29.94,ENE,68,15.0,15.0,67,0.00,,---,0.00,VWS V14.01,2013-02-27 02:03:00,
2013-02-26 21:08:00,40.3,30.6,29.94,East,86,10.5,10.5,68,0.00,,---,0.00,VWS V14.01,2013-02-27 02:08:00,
2013-02-26 21:13:00,40.3,30.6,29.94,ENE,73,10.1,10.1,68,0.00,,---,0.00,VWS V14.01,2013-02-27 02:13:00,
2013-02-26 21:18:00,40.1,30.8,29.94,East,79,15.0,15.0,69,0.00,,---,0.00,VWS V14.01,2013-02-27 02:18:00,
2013-02-26 21:23:00,40.3,31.3,29.94,ENE,72,10.5,10.5,70,0.00,,---,0.00,VWS V14.01,2013-02-27 02:23:00,
2013-02-26 21:28:00,40.3,31.3,29.94,ENE,65,17.9,17.9,70,0.00,,---,0.00,VWS V14.01,2013-02-27 02:28:00,
2013-02-26 21:34:00,40.3,31.3,29.94,ENE,63,5.8,5.8,70,0.00,,---,0.00,VWS V14.01,2013-02-27 02:34:00,
2013-02-26 21:39:00,40.3,31.6,29.94,East,80,23.3,23.3,71,0.00,,---,0.00,VWS V14.01,2013-02-27 02:39:00,
2013-02-26 21:44:00,40.3,31.6,29.94,ENE,70,13.6,13.6,71,0.00,,---,0.00,VWS V14.01,2013-02-27 02:44:00,
2013-02-26 21:49:00,40.3,32.0,29.91,East,84,12.8,12.8,72,0.00,,---,0.00,VWS V14.01,2013-02-27 02:49:00,
2013-02-26 21:54:00,40.3,32.0,29.91,ENE,64,7.6,7.6,72,0.00,,---,0.00,VWS V14.01,2013-02-27 02:54:00,
2013-02-26 21:59:00,40.3,32.3,29.91,ENE,67,10.1,10.1,73,0.00,,---,0.00,VWS V14.01,2013-02-27 02:59:00,
2013-02-26 22:04:00,40.3,32.3,29.91,ENE,71,18.3,18.3,73,0.04,,---,0.04,VWS V14.01,2013-02-27 03:04:00,
2013-02-26 22:09:00,40.3,32.3,29.91,ENE,69,8.7,8.7,73,0.04,,---,0.04,VWS V14.01,2013-02-27 03:09:00,
2013-02-26 22:14:00,40.3,32.7,29.91,NE,52,8.3,8.3,74,0.04,,---,0.04,VWS V14.01,2013-02-27 03:14:00,
2013-02-26 22:19:00,40.3,32.7,29.88,ESE,107,5.4,5.4,74,0.04,,---,0.04,VWS V14.01,2013-02-27 03:19:00,
2013-02-26 22:24:00,40.5,33.2,29.88,ENE,69,11.9,11.9,75,0.04,,---,0.04,VWS V14.01,2013-02-27 03:24:00,
2013-02-26 22:29:00,40.5,33.2,29.88,East,87,7.6,7.6,75,0.04,,---,0.04,VWS V14.01,2013-02-27 03:29:00,
2013-02-26 22:34:00,40.5,33.2,29.88,ENE,61,10.5,10.5,75,0.04,,---,0.04,VWS V14.01,2013-02-27 03:34:00,
2013-02-26 22:39:00,40.5,33.2,29.88,NE,36,12.8,12.8,75,0.04,,---,0.04,VWS V14.01,2013-02-27 03:39:00,
2013-02-26 22:44:00,40.6,33.7,29.88,NE,38,15.0,15.0,76,0.04,,---,0.04,VWS V14.01,2013-02-27 03:44:00,
2013-02-26 22:49:00,40.6,33.7,29.88,ENE,63,8.7,8.7,76,0.04,,---,0.04,VWS V14.01,2013-02-27 03:49:00,
2013-02-26 22:54:00,40.6,33.7,29.88,East,81,10.1,10.1,76,0.04,,---,0.04,VWS V14.01,2013-02-27 03:54:00,
2013-02-26 22:59:00,40.8,33.8,29.83,NNE,25,17.0,17.0,76,0.04,,---,0.04,VWS V14.01,2013-02-27 03:59:00,
2013-02-26 23:04:00,40.8,33.8,29.83,NNE,18,17.9,17.9,76,0.04,,---,0.04,VWS V14.01,2013-02-27 04:04:00,
2013-02-26 23:09:00,40.8,33.8,29.83,ENE,71,13.2,13.2,76,0.08,,---,0.08,VWS V14.01,2013-02-27 04:09:00,
2013-02-26 23:14:00,41.0,34.0,29.83,North,357,6.3,6.3,76,0.08,,---,0.08,VWS V14.01,2013-02-27 04:14:00,
2013-02-26 23:19:00,41.0,34.0,29.83,East,91,19.7,19.7,76,0.04,,---,0.08,VWS V14.01,2013-02-27 04:19:00,
2013-02-26 23:24:00,41.2,34.2,29.83,ENE,75,15.4,15.4,76,0.04,,---,0.08,VWS V14.01,2013-02-27 04:24:00,
2013-02-26 23:29:00,41.2,34.5,29.80,North,11,8.1,8.1,77,0.04,,---,0.08,VWS V14.01,2013-02-27 04:29:00,
2013-02-26 23:34:00,41.2,34.5,29.80,NE,50,13.2,13.2,77,0.04,,---,0.08,VWS V14.01,2013-02-27 04:34:00,
2013-02-26 23:39:00,41.4,34.7,29.80,NE,52,10.1,10.1,77,0.12,,---,0.16,VWS V14.01,2013-02-27 04:39:00,
2013-02-26 23:44:00,41.4,34.7,29.80,ESE,104,11.0,11.0,77,0.12,,---,0.16,VWS V14.01,2013-02-27 04:44:00,
2013-02-26 23:49:00,41.4,34.7,29.80,NE,45,12.8,12.8,77,0.20,,---,0.24,VWS V14.01,2013-02-27 04:49:00,
2013-02-26 23:54:00,41.5,34.9,29.80,ENE,68,6.3,6.3,77,0.20,,---,0.24,VWS V14.01,2013-02-27 04:54:00,
2013-02-26 23:59:00,41.5,34.9,29.80,ENE,66,6.3,6.3,77,0.20,,---,0.24,VWS V14.01,2013-02-27 04:59:00,